sensor_id;sensor_type;location;lat;lon;timestamp;temperature;humidity
43884;DHT22;29544;52.018;5.810;2023-07-28T00:02:21;21.20;75.30
43884;DHT22;29544;52.018;5.810;2023-07-28T00:04:46;21.20;75.20
43884;DHT22;29544;52.018;5.810;2023-07-28T00:07:12;21.20;75.20
43884;DHT22;29544;52.018;5.810;2023-07-28T00:09:37;21.20;75.20
43884;DHT22;29544;52.018;5.810;2023-07-28T00:12:03;21.20;75.20
43884;DHT22;29544;52.018;5.810;2023-07-28T00:14:28;21.20;75.10
43884;DHT22;29544;52.018;5.810;2023-07-28T00:16:54;21.10;75.00
43884;DHT22;29544;52.018;5.810;2023-07-28T00:19:20;21.20;75.10
43884;DHT22;29544;52.018;5.810;2023-07-28T00:21:49;21.20;75.10
43884;DHT22;29544;52.018;5.810;2023-07-28T00:24:15;21.20;75.00
43884;DHT22;29544;52.018;5.810;2023-07-28T00:26:40;21.10;75.00
43884;DHT22;29544;52.018;5.810;2023-07-28T00:29:06;21.10;74.90
43884;DHT22;29544;52.018;5.810;2023-07-28T00:31:33;21.10;74.90
43884;DHT22;29544;52.018;5.810;2023-07-28T00:33:58;21.10;75.00
43884;DHT22;29544;52.018;5.810;2023-07-28T00:36:24;21.10;74.90
43884;DHT22;29544;52.018;5.810;2023-07-28T00:38:49;21.10;74.90
43884;DHT22;29544;52.018;5.810;2023-07-28T00:41:14;21.10;74.90
43884;DHT22;29544;52.018;5.810;2023-07-28T00:43:40;21.10;74.90
43884;DHT22;29544;52.018;5.810;2023-07-28T00:46:05;21.10;74.90
43884;DHT22;29544;52.018;5.810;2023-07-28T00:48:31;21.10;74.90
43884;DHT22;29544;52.018;5.810;2023-07-28T00:50:57;21.10;74.80
43884;DHT22;29544;52.018;5.810;2023-07-28T00:53:23;21.10;74.80
43884;DHT22;29544;52.018;5.810;2023-07-28T00:55:48;21.10;74.90
43884;DHT22;29544;52.018;5.810;2023-07-28T00:58:14;21.10;74.80
43884;DHT22;29544;52.018;5.810;2023-07-28T01:00:39;21.10;74.80
43884;DHT22;29544;52.018;5.810;2023-07-28T01:03:05;21.10;74.80
43884;DHT22;29544;52.018;5.810;2023-07-28T01:05:32;21.10;74.80
43884;DHT22;29544;52.018;5.810;2023-07-28T01:08:00;21.10;74.80
43884;DHT22;29544;52.018;5.810;2023-07-28T01:10:31;21.10;74.80
43884;DHT22;29544;52.018;5.810;2023-07-28T01:12:59;21.10;74.80
43884;DHT22;29544;52.018;5.810;2023-07-28T01:15:25;21.10;74.80
43884;DHT22;29544;52.018;5.810;2023-07-28T01:17:50;21.10;74.80
43884;DHT22;29544;52.018;5.810;2023-07-28T01:20:16;21.10;74.80
43884;DHT22;29544;52.018;5.810;2023-07-28T01:27:48;21.10;74.80
43884;DHT22;29544;52.018;5.810;2023-07-28T01:30:14;21.00;74.80
43884;DHT22;29544;52.018;5.810;2023-07-28T01:32:40;21.10;74.80
43884;DHT22;29544;52.018;5.810;2023-07-28T01:35:05;21.00;74.80
43884;DHT22;29544;52.018;5.810;2023-07-28T01:37:31;21.00;74.80
43884;DHT22;29544;52.018;5.810;2023-07-28T01:39:56;21.00;74.70
43884;DHT22;29544;52.018;5.810;2023-07-28T01:42:23;21.00;74.80
43884;DHT22;29544;52.018;5.810;2023-07-28T01:44:48;21.00;74.70
43884;DHT22;29544;52.018;5.810;2023-07-28T01:47:14;21.00;74.70
43884;DHT22;29544;52.018;5.810;2023-07-28T01:49:39;21.00;74.70
43884;DHT22;29544;52.018;5.810;2023-07-28T01:52:05;21.00;74.70
43884;DHT22;29544;52.018;5.810;2023-07-28T01:54:30;21.00;74.70
43884;DHT22;29544;52.018;5.810;2023-07-28T01:56:56;21.00;74.70
43884;DHT22;29544;52.018;5.810;2023-07-28T01:59:21;21.00;74.80
43884;DHT22;29544;52.018;5.810;2023-07-28T02:01:47;21.00;74.70
43884;DHT22;29544;52.018;5.810;2023-07-28T02:04:12;21.00;74.60
43884;DHT22;29544;52.018;5.810;2023-07-28T02:06:37;21.00;74.60
43884;DHT22;29544;52.018;5.810;2023-07-28T02:09:03;21.00;74.70
43884;DHT22;29544;52.018;5.810;2023-07-28T02:11:29;21.00;74.70
43884;DHT22;29544;52.018;5.810;2023-07-28T02:13:54;21.00;74.60
43884;DHT22;29544;52.018;5.810;2023-07-28T02:16:20;21.00;74.60
43884;DHT22;29544;52.018;5.810;2023-07-28T02:18:45;21.00;74.60
43884;DHT22;29544;52.018;5.810;2023-07-28T02:21:10;21.00;74.60
43884;DHT22;29544;52.018;5.810;2023-07-28T02:23:36;21.00;74.60
43884;DHT22;29544;52.018;5.810;2023-07-28T02:26:01;21.00;74.60
43884;DHT22;29544;52.018;5.810;2023-07-28T02:28:27;21.00;74.60
43884;DHT22;29544;52.018;5.810;2023-07-28T02:30:53;21.00;74.60
43884;DHT22;29544;52.018;5.810;2023-07-28T02:33:18;21.00;74.60
43884;DHT22;29544;52.018;5.810;2023-07-28T02:35:44;21.00;74.70
43884;DHT22;29544;52.018;5.810;2023-07-28T02:38:09;21.00;74.60
43884;DHT22;29544;52.018;5.810;2023-07-28T02:40:35;21.00;74.60
43884;DHT22;29544;52.018;5.810;2023-07-28T02:43:00;21.00;74.60
43884;DHT22;29544;52.018;5.810;2023-07-28T02:45:26;21.00;74.60
43884;DHT22;29544;52.018;5.810;2023-07-28T02:47:51;21.00;74.60
43884;DHT22;29544;52.018;5.810;2023-07-28T02:50:17;21.00;74.70
43884;DHT22;29544;52.018;5.810;2023-07-28T02:52:42;21.00;74.60
43884;DHT22;29544;52.018;5.810;2023-07-28T02:55:08;21.00;74.60
43884;DHT22;29544;52.018;5.810;2023-07-28T02:57:33;21.00;74.60
43884;DHT22;29544;52.018;5.810;2023-07-28T02:59:58;21.00;74.60
43884;DHT22;29544;52.018;5.810;2023-07-28T03:02:24;20.90;74.50
43884;DHT22;29544;52.018;5.810;2023-07-28T03:04:49;20.90;74.50
43884;DHT22;29544;52.018;5.810;2023-07-28T03:07:15;20.90;74.50
43884;DHT22;29544;52.018;5.810;2023-07-28T03:09:40;20.90;74.40
43884;DHT22;29544;52.018;5.810;2023-07-28T03:12:06;21.00;74.50
43884;DHT22;29544;52.018;5.810;2023-07-28T03:14:32;20.90;74.50
43884;DHT22;29544;52.018;5.810;2023-07-28T03:16:57;21.00;74.60
43884;DHT22;29544;52.018;5.810;2023-07-28T03:19:23;20.90;74.50
43884;DHT22;29544;52.018;5.810;2023-07-28T03:21:48;20.90;74.50
43884;DHT22;29544;52.018;5.810;2023-07-28T03:24:14;21.00;74.50
43884;DHT22;29544;52.018;5.810;2023-07-28T03:26:39;20.90;74.40
43884;DHT22;29544;52.018;5.810;2023-07-28T03:29:04;20.90;74.50
43884;DHT22;29544;52.018;5.810;2023-07-28T03:31:30;21.00;74.50
43884;DHT22;29544;52.018;5.810;2023-07-28T03:33:55;20.90;74.40
43884;DHT22;29544;52.018;5.810;2023-07-28T03:36:21;20.90;74.50
43884;DHT22;29544;52.018;5.810;2023-07-28T03:38:46;20.90;74.40
43884;DHT22;29544;52.018;5.810;2023-07-28T03:41:12;20.90;74.50
43884;DHT22;29544;52.018;5.810;2023-07-28T03:43:38;20.90;74.40
43884;DHT22;29544;52.018;5.810;2023-07-28T03:46:03;20.90;74.50
43884;DHT22;29544;52.018;5.810;2023-07-28T03:48:29;20.90;74.40
43884;DHT22;29544;52.018;5.810;2023-07-28T03:50:54;20.90;74.50
43884;DHT22;29544;52.018;5.810;2023-07-28T03:53:20;20.90;74.40
43884;DHT22;29544;52.018;5.810;2023-07-28T03:55:45;20.90;74.40
43884;DHT22;29544;52.018;5.810;2023-07-28T03:58:11;20.90;74.40
43884;DHT22;29544;52.018;5.810;2023-07-28T04:00:36;20.90;74.40
43884;DHT22;29544;52.018;5.810;2023-07-28T04:03:01;20.90;74.40
43884;DHT22;29544;52.018;5.810;2023-07-28T04:05:27;20.90;74.40
43884;DHT22;29544;52.018;5.810;2023-07-28T04:07:52;20.90;74.40
43884;DHT22;29544;52.018;5.810;2023-07-28T04:10:18;20.90;74.40
43884;DHT22;29544;52.018;5.810;2023-07-28T04:12:43;20.90;74.50
43884;DHT22;29544;52.018;5.810;2023-07-28T04:15:09;20.90;74.40
43884;DHT22;29544;52.018;5.810;2023-07-28T04:17:34;20.90;74.40
43884;DHT22;29544;52.018;5.810;2023-07-28T04:20:00;20.90;74.50
43884;DHT22;29544;52.018;5.810;2023-07-28T04:22:26;20.90;74.40
43884;DHT22;29544;52.018;5.810;2023-07-28T04:24:51;20.90;74.50
43884;DHT22;29544;52.018;5.810;2023-07-28T04:27:16;20.90;74.40
43884;DHT22;29544;52.018;5.810;2023-07-28T04:29:42;20.90;74.40
43884;DHT22;29544;52.018;5.810;2023-07-28T04:32:07;20.90;74.40
43884;DHT22;29544;52.018;5.810;2023-07-28T04:34:33;20.90;74.40
43884;DHT22;29544;52.018;5.810;2023-07-28T04:36:59;20.90;74.40
43884;DHT22;29544;52.018;5.810;2023-07-28T04:39:24;20.90;74.40
43884;DHT22;29544;52.018;5.810;2023-07-28T04:41:50;20.90;74.40
43884;DHT22;29544;52.018;5.810;2023-07-28T04:44:15;20.90;74.40
43884;DHT22;29544;52.018;5.810;2023-07-28T04:46:41;20.90;74.40
43884;DHT22;29544;52.018;5.810;2023-07-28T04:49:06;20.90;74.30
43884;DHT22;29544;52.018;5.810;2023-07-28T04:51:32;20.90;74.40
43884;DHT22;29544;52.018;5.810;2023-07-28T04:53:57;20.90;74.40
43884;DHT22;29544;52.018;5.810;2023-07-28T04:56:23;20.90;74.40
43884;DHT22;29544;52.018;5.810;2023-07-28T04:58:48;20.80;74.40
43884;DHT22;29544;52.018;5.810;2023-07-28T05:01:13;20.80;74.40
43884;DHT22;29544;52.018;5.810;2023-07-28T05:03:39;20.90;74.40
43884;DHT22;29544;52.018;5.810;2023-07-28T05:06:04;20.90;74.40
43884;DHT22;29544;52.018;5.810;2023-07-28T05:08:30;20.80;74.30
43884;DHT22;29544;52.018;5.810;2023-07-28T05:10:56;20.80;74.40
43884;DHT22;29544;52.018;5.810;2023-07-28T05:13:21;20.90;74.40
43884;DHT22;29544;52.018;5.810;2023-07-28T05:15:47;20.90;74.40
43884;DHT22;29544;52.018;5.810;2023-07-28T05:18:12;20.80;74.40
43884;DHT22;29544;52.018;5.810;2023-07-28T05:20:38;20.90;74.40
43884;DHT22;29544;52.018;5.810;2023-07-28T05:23:03;20.80;74.30
43884;DHT22;29544;52.018;5.810;2023-07-28T05:25:29;20.80;74.30
43884;DHT22;29544;52.018;5.810;2023-07-28T05:27:54;20.80;74.30
43884;DHT22;29544;52.018;5.810;2023-07-28T05:30:20;20.80;74.40
43884;DHT22;29544;52.018;5.810;2023-07-28T05:32:46;20.80;74.30
43884;DHT22;29544;52.018;5.810;2023-07-28T05:35:12;20.80;74.40
43884;DHT22;29544;52.018;5.810;2023-07-28T05:37:37;20.80;74.30
43884;DHT22;29544;52.018;5.810;2023-07-28T05:40:03;20.90;74.40
43884;DHT22;29544;52.018;5.810;2023-07-28T05:42:28;20.80;74.40
43884;DHT22;29544;52.018;5.810;2023-07-28T05:44:54;20.80;74.30
43884;DHT22;29544;52.018;5.810;2023-07-28T05:47:20;20.80;74.30
43884;DHT22;29544;52.018;5.810;2023-07-28T05:49:46;20.80;74.30
43884;DHT22;29544;52.018;5.810;2023-07-28T05:52:11;20.80;74.30
43884;DHT22;29544;52.018;5.810;2023-07-28T05:54:37;20.80;74.30
43884;DHT22;29544;52.018;5.810;2023-07-28T05:57:02;20.80;74.40
43884;DHT22;29544;52.018;5.810;2023-07-28T05:59:28;20.80;74.30
43884;DHT22;29544;52.018;5.810;2023-07-28T06:01:54;20.80;74.40
43884;DHT22;29544;52.018;5.810;2023-07-28T06:04:20;20.80;74.30
43884;DHT22;29544;52.018;5.810;2023-07-28T06:06:46;20.80;74.30
43884;DHT22;29544;52.018;5.810;2023-07-28T06:09:11;20.80;74.30
43884;DHT22;29544;52.018;5.810;2023-07-28T06:11:37;20.80;74.90
43884;DHT22;29544;52.018;5.810;2023-07-28T06:14:02;20.80;74.30
43884;DHT22;29544;52.018;5.810;2023-07-28T06:16:27;20.90;74.30
43884;DHT22;29544;52.018;5.810;2023-07-28T06:18:53;20.80;74.30
43884;DHT22;29544;52.018;5.810;2023-07-28T06:21:18;20.80;74.30
43884;DHT22;29544;52.018;5.810;2023-07-28T06:23:44;20.80;74.30
43884;DHT22;29544;52.018;5.810;2023-07-28T06:26:09;20.80;74.30
43884;DHT22;29544;52.018;5.810;2023-07-28T06:28:34;20.80;74.40
43884;DHT22;29544;52.018;5.810;2023-07-28T06:31:00;20.80;74.30
43884;DHT22;29544;52.018;5.810;2023-07-28T06:33:27;20.80;74.40
43884;DHT22;29544;52.018;5.810;2023-07-28T06:35:53;20.80;74.30
43884;DHT22;29544;52.018;5.810;2023-07-28T06:38:18;20.80;74.30
43884;DHT22;29544;52.018;5.810;2023-07-28T06:40:44;20.80;74.40
43884;DHT22;29544;52.018;5.810;2023-07-28T06:43:09;20.80;74.40
43884;DHT22;29544;52.018;5.810;2023-07-28T06:45:35;20.80;74.40
43884;DHT22;29544;52.018;5.810;2023-07-28T06:48:00;20.80;74.40
43884;DHT22;29544;52.018;5.810;2023-07-28T06:50:26;20.80;74.40
43884;DHT22;29544;52.018;5.810;2023-07-28T06:52:51;20.80;74.40
43884;DHT22;29544;52.018;5.810;2023-07-28T06:55:17;20.80;74.40
43884;DHT22;29544;52.018;5.810;2023-07-28T06:57:43;20.80;74.30
43884;DHT22;29544;52.018;5.810;2023-07-28T07:00:09;20.80;74.40
43884;DHT22;29544;52.018;5.810;2023-07-28T07:02:35;20.80;74.40
43884;DHT22;29544;52.018;5.810;2023-07-28T07:05:00;20.80;74.30
43884;DHT22;29544;52.018;5.810;2023-07-28T07:07:26;20.80;74.30
43884;DHT22;29544;52.018;5.810;2023-07-28T07:09:52;20.80;74.30
43884;DHT22;29544;52.018;5.810;2023-07-28T07:12:17;20.80;74.30
43884;DHT22;29544;52.018;5.810;2023-07-28T07:14:44;20.80;74.40
43884;DHT22;29544;52.018;5.810;2023-07-28T07:17:10;20.80;74.50
43884;DHT22;29544;52.018;5.810;2023-07-28T07:19:35;20.80;74.40
43884;DHT22;29544;52.018;5.810;2023-07-28T07:22:01;20.80;74.50
43884;DHT22;29544;52.018;5.810;2023-07-28T07:24:27;20.80;74.50
43884;DHT22;29544;52.018;5.810;2023-07-28T07:26:52;20.80;74.40
43884;DHT22;29544;52.018;5.810;2023-07-28T07:29:18;20.80;77.10
43884;DHT22;29544;52.018;5.810;2023-07-28T07:31:43;20.80;78.30
43884;DHT22;29544;52.018;5.810;2023-07-28T07:34:09;20.80;79.00
43884;DHT22;29544;52.018;5.810;2023-07-28T07:36:34;20.70;79.80
43884;DHT22;29544;52.018;5.810;2023-07-28T07:39:00;20.70;80.20
43884;DHT22;29544;52.018;5.810;2023-07-28T07:41:25;20.70;80.00
43884;DHT22;29544;52.018;5.810;2023-07-28T07:43:54;20.70;81.20
43884;DHT22;29544;52.018;5.810;2023-07-28T07:46:19;20.70;80.90
43884;DHT22;29544;52.018;5.810;2023-07-28T07:48:45;20.60;81.60
43884;DHT22;29544;52.018;5.810;2023-07-28T07:51:11;20.70;81.20
43884;DHT22;29544;52.018;5.810;2023-07-28T07:53:36;20.60;82.30
43884;DHT22;29544;52.018;5.810;2023-07-28T07:56:02;20.70;82.60
43884;DHT22;29544;52.018;5.810;2023-07-28T07:58:28;20.70;83.00
43884;DHT22;29544;52.018;5.810;2023-07-28T08:00:54;20.60;82.20
43884;DHT22;29544;52.018;5.810;2023-07-28T08:03:19;20.60;82.60
43884;DHT22;29544;52.018;5.810;2023-07-28T08:05:45;20.70;83.10
43884;DHT22;29544;52.018;5.810;2023-07-28T08:08:11;20.60;82.90
43884;DHT22;29544;52.018;5.810;2023-07-28T08:10:36;20.70;82.60
43884;DHT22;29544;52.018;5.810;2023-07-28T08:13:03;20.70;83.70
43884;DHT22;29544;52.018;5.810;2023-07-28T08:15:29;20.70;83.20
43884;DHT22;29544;52.018;5.810;2023-07-28T08:17:54;20.70;83.10
43884;DHT22;29544;52.018;5.810;2023-07-28T08:20:20;20.70;83.60
43884;DHT22;29544;52.018;5.810;2023-07-28T08:22:45;20.70;83.20
43884;DHT22;29544;52.018;5.810;2023-07-28T08:25:11;20.70;83.50
43884;DHT22;29544;52.018;5.810;2023-07-28T08:27:36;20.60;84.20
43884;DHT22;29544;52.018;5.810;2023-07-28T08:30:02;20.70;84.20
43884;DHT22;29544;52.018;5.810;2023-07-28T08:32:28;20.60;84.20
43884;DHT22;29544;52.018;5.810;2023-07-28T08:34:53;20.60;84.70
43884;DHT22;29544;52.018;5.810;2023-07-28T08:37:19;20.70;84.00
43884;DHT22;29544;52.018;5.810;2023-07-28T08:39:44;20.70;84.80
43884;DHT22;29544;52.018;5.810;2023-07-28T08:42:10;20.60;84.00
43884;DHT22;29544;52.018;5.810;2023-07-28T08:44:35;20.70;84.60
43884;DHT22;29544;52.018;5.810;2023-07-28T08:47:04;20.70;84.10
43884;DHT22;29544;52.018;5.810;2023-07-28T08:49:30;20.70;85.20
43884;DHT22;29544;52.018;5.810;2023-07-28T08:52:00;20.60;84.50
43884;DHT22;29544;52.018;5.810;2023-07-28T08:54:26;20.60;84.50
43884;DHT22;29544;52.018;5.810;2023-07-28T08:56:52;20.70;84.30
43884;DHT22;29544;52.018;5.810;2023-07-28T08:59:21;20.70;84.80
43884;DHT22;29544;52.018;5.810;2023-07-28T09:01:49;20.70;84.40
43884;DHT22;29544;52.018;5.810;2023-07-28T09:04:15;20.70;84.80
43884;DHT22;29544;52.018;5.810;2023-07-28T09:06:40;20.70;85.90
43884;DHT22;29544;52.018;5.810;2023-07-28T09:09:09;20.70;85.10
43884;DHT22;29544;52.018;5.810;2023-07-28T09:11:43;20.70;85.80
43884;DHT22;29544;52.018;5.810;2023-07-28T09:14:11;20.70;85.00
43884;DHT22;29544;52.018;5.810;2023-07-28T09:16:36;20.70;85.50
43884;DHT22;29544;52.018;5.810;2023-07-28T09:19:06;20.70;85.60
43884;DHT22;29544;52.018;5.810;2023-07-28T09:21:32;20.70;85.60
43884;DHT22;29544;52.018;5.810;2023-07-28T09:23:59;20.70;85.50
43884;DHT22;29544;52.018;5.810;2023-07-28T09:26:35;20.80;85.50
43884;DHT22;29544;52.018;5.810;2023-07-28T09:29:01;20.80;85.30
43884;DHT22;29544;52.018;5.810;2023-07-28T09:31:35;20.80;86.10
43884;DHT22;29544;52.018;5.810;2023-07-28T09:34:00;20.80;85.50
43884;DHT22;29544;52.018;5.810;2023-07-28T09:36:26;20.90;86.70
43884;DHT22;29544;52.018;5.810;2023-07-28T09:38:52;20.80;86.50
43884;DHT22;29544;52.018;5.810;2023-07-28T09:41:18;20.90;86.90
43884;DHT22;29544;52.018;5.810;2023-07-28T09:43:46;20.90;87.30
43884;DHT22;29544;52.018;5.810;2023-07-28T09:46:13;20.90;86.80
43884;DHT22;29544;52.018;5.810;2023-07-28T09:48:44;21.00;86.70
43884;DHT22;29544;52.018;5.810;2023-07-28T09:51:17;21.00;86.60
43884;DHT22;29544;52.018;5.810;2023-07-28T09:53:44;21.00;87.00
43884;DHT22;29544;52.018;5.810;2023-07-28T09:56:12;21.00;86.50
43884;DHT22;29544;52.018;5.810;2023-07-28T09:58:40;21.00;86.60
43884;DHT22;29544;52.018;5.810;2023-07-28T10:01:07;21.10;87.20
43884;DHT22;29544;52.018;5.810;2023-07-28T10:03:32;21.10;87.50
43884;DHT22;29544;52.018;5.810;2023-07-28T10:05:59;21.10;87.60
43884;DHT22;29544;52.018;5.810;2023-07-28T10:08:24;21.10;87.60
43884;DHT22;29544;52.018;5.810;2023-07-28T10:10:50;21.20;87.30
43884;DHT22;29544;52.018;5.810;2023-07-28T10:13:21;21.20;86.80
43884;DHT22;29544;52.018;5.810;2023-07-28T10:15:47;21.20;88.00
43884;DHT22;29544;52.018;5.810;2023-07-28T10:18:15;21.30;87.70
43884;DHT22;29544;52.018;5.810;2023-07-28T10:20:42;21.30;87.10
43884;DHT22;29544;52.018;5.810;2023-07-28T10:23:11;21.20;87.10
43884;DHT22;29544;52.018;5.810;2023-07-28T10:25:37;21.30;86.80
43884;DHT22;29544;52.018;5.810;2023-07-28T10:28:04;21.30;86.30
43884;DHT22;29544;52.018;5.810;2023-07-28T10:30:34;21.30;87.50
43884;DHT22;29544;52.018;5.810;2023-07-28T10:33:01;21.30;86.80
43884;DHT22;29544;52.018;5.810;2023-07-28T10:35:28;21.40;86.80
43884;DHT22;29544;52.018;5.810;2023-07-28T10:37:56;21.40;86.90
43884;DHT22;29544;52.018;5.810;2023-07-28T10:40:31;21.40;86.50
43884;DHT22;29544;52.018;5.810;2023-07-28T10:42:58;21.40;86.70
43884;DHT22;29544;52.018;5.810;2023-07-28T10:45:27;21.40;86.70
43884;DHT22;29544;52.018;5.810;2023-07-28T10:47:53;21.40;86.80
43884;DHT22;29544;52.018;5.810;2023-07-28T10:50:21;21.50;86.30
43884;DHT22;29544;52.018;5.810;2023-07-28T10:52:48;21.50;85.40
43884;DHT22;29544;52.018;5.810;2023-07-28T10:55:17;21.50;84.90
43884;DHT22;29544;52.018;5.810;2023-07-28T10:57:45;21.50;84.90
43884;DHT22;29544;52.018;5.810;2023-07-28T11:00:11;21.60;84.80
43884;DHT22;29544;52.018;5.810;2023-07-28T11:02:44;21.60;84.80
43884;DHT22;29544;52.018;5.810;2023-07-28T11:05:10;21.50;84.00
43884;DHT22;29544;52.018;5.810;2023-07-28T11:07:36;21.50;84.00
43884;DHT22;29544;52.018;5.810;2023-07-28T11:10:02;21.60;83.70
43884;DHT22;29544;52.018;5.810;2023-07-28T11:12:28;21.60;83.70
43884;DHT22;29544;52.018;5.810;2023-07-28T11:14:54;21.50;83.90
43884;DHT22;29544;52.018;5.810;2023-07-28T11:17:20;21.60;83.80
43884;DHT22;29544;52.018;5.810;2023-07-28T11:19:45;21.60;83.80
43884;DHT22;29544;52.018;5.810;2023-07-28T11:22:11;21.60;84.30
43884;DHT22;29544;52.018;5.810;2023-07-28T11:24:36;21.60;84.00
43884;DHT22;29544;52.018;5.810;2023-07-28T11:27:01;21.60;83.80
43884;DHT22;29544;52.018;5.810;2023-07-28T11:29:28;21.60;83.50
43884;DHT22;29544;52.018;5.810;2023-07-28T11:31:53;21.60;83.40
43884;DHT22;29544;52.018;5.810;2023-07-28T11:34:19;21.60;83.40
43884;DHT22;29544;52.018;5.810;2023-07-28T11:36:44;21.60;83.10
43884;DHT22;29544;52.018;5.810;2023-07-28T11:39:10;21.60;82.70
43884;DHT22;29544;52.018;5.810;2023-07-28T11:41:36;21.60;82.30
43884;DHT22;29544;52.018;5.810;2023-07-28T11:44:02;21.60;82.40
43884;DHT22;29544;52.018;5.810;2023-07-28T11:46:40;21.60;82.50
43884;DHT22;29544;52.018;5.810;2023-07-28T11:49:09;21.70;82.90
43884;DHT22;29544;52.018;5.810;2023-07-28T11:51:39;21.60;82.60
43884;DHT22;29544;52.018;5.810;2023-07-28T11:54:05;21.70;82.80
43884;DHT22;29544;52.018;5.810;2023-07-28T11:56:31;21.70;82.90
43884;DHT22;29544;52.018;5.810;2023-07-28T11:58:56;21.70;82.90
43884;DHT22;29544;52.018;5.810;2023-07-28T12:01:22;21.70;82.70
43884;DHT22;29544;52.018;5.810;2023-07-28T12:03:47;21.80;82.70
43884;DHT22;29544;52.018;5.810;2023-07-28T12:06:12;21.80;82.60
43884;DHT22;29544;52.018;5.810;2023-07-28T12:08:38;21.80;82.50
43884;DHT22;29544;52.018;5.810;2023-07-28T12:11:04;21.80;82.20
43884;DHT22;29544;52.018;5.810;2023-07-28T12:13:29;21.80;82.30
43884;DHT22;29544;52.018;5.810;2023-07-28T12:15:55;21.80;83.00
43884;DHT22;29544;52.018;5.810;2023-07-28T12:18:20;21.90;83.20
43884;DHT22;29544;52.018;5.810;2023-07-28T12:20:53;21.90;83.20
43884;DHT22;29544;52.018;5.810;2023-07-28T12:23:19;21.90;82.50
43884;DHT22;29544;52.018;5.810;2023-07-28T12:25:45;21.90;82.40
43884;DHT22;29544;52.018;5.810;2023-07-28T12:28:11;21.90;82.50
43884;DHT22;29544;52.018;5.810;2023-07-28T12:30:37;21.90;82.60
43884;DHT22;29544;52.018;5.810;2023-07-28T12:33:03;22.00;82.20
43884;DHT22;29544;52.018;5.810;2023-07-28T12:35:29;22.00;82.10
43884;DHT22;29544;52.018;5.810;2023-07-28T12:38:05;22.00;82.00
43884;DHT22;29544;52.018;5.810;2023-07-28T12:40:32;22.00;82.10
43884;DHT22;29544;52.018;5.810;2023-07-28T12:42:58;22.00;81.70
43884;DHT22;29544;52.018;5.810;2023-07-28T12:45:23;22.00;81.50
43884;DHT22;29544;52.018;5.810;2023-07-28T12:47:54;22.00;81.60
43884;DHT22;29544;52.018;5.810;2023-07-28T12:50:20;22.00;81.70
43884;DHT22;29544;52.018;5.810;2023-07-28T12:52:46;22.10;81.80
43884;DHT22;29544;52.018;5.810;2023-07-28T12:55:11;22.10;81.80
43884;DHT22;29544;52.018;5.810;2023-07-28T12:57:37;22.10;81.30
43884;DHT22;29544;52.018;5.810;2023-07-28T13:00:02;22.20;82.30
43884;DHT22;29544;52.018;5.810;2023-07-28T13:02:40;22.30;81.10
43884;DHT22;29544;52.018;5.810;2023-07-28T13:05:06;22.30;80.90
43884;DHT22;29544;52.018;5.810;2023-07-28T13:07:32;22.40;81.90
43884;DHT22;29544;52.018;5.810;2023-07-28T13:09:58;22.50;81.50
43884;DHT22;29544;52.018;5.810;2023-07-28T13:12:23;22.50;80.60
43884;DHT22;29544;52.018;5.810;2023-07-28T13:14:48;22.50;80.40
43884;DHT22;29544;52.018;5.810;2023-07-28T13:17:14;22.50;80.10
43884;DHT22;29544;52.018;5.810;2023-07-28T13:19:40;22.60;79.30
43884;DHT22;29544;52.018;5.810;2023-07-28T13:22:06;22.60;79.00
43884;DHT22;29544;52.018;5.810;2023-07-28T13:24:31;22.60;79.60
43884;DHT22;29544;52.018;5.810;2023-07-28T13:26:57;22.70;79.70
43884;DHT22;29544;52.018;5.810;2023-07-28T13:29:22;22.80;79.30
43884;DHT22;29544;52.018;5.810;2023-07-28T13:31:48;22.90;79.20
43884;DHT22;29544;52.018;5.810;2023-07-28T13:34:13;22.90;79.80
43884;DHT22;29544;52.018;5.810;2023-07-28T13:36:39;23.10;79.90
43884;DHT22;29544;52.018;5.810;2023-07-28T13:39:04;23.10;78.60
43884;DHT22;29544;52.018;5.810;2023-07-28T13:41:31;23.00;79.20
43884;DHT22;29544;52.018;5.810;2023-07-28T13:43:56;23.20;77.80
43884;DHT22;29544;52.018;5.810;2023-07-28T13:46:22;23.20;77.00
43884;DHT22;29544;52.018;5.810;2023-07-28T13:48:48;23.20;77.10
43884;DHT22;29544;52.018;5.810;2023-07-28T13:51:13;23.20;76.90
43884;DHT22;29544;52.018;5.810;2023-07-28T13:53:38;23.20;77.30
43884;DHT22;29544;52.018;5.810;2023-07-28T13:56:04;23.30;76.70
43884;DHT22;29544;52.018;5.810;2023-07-28T13:58:30;23.20;76.70
43884;DHT22;29544;52.018;5.810;2023-07-28T14:00:56;23.20;75.60
43884;DHT22;29544;52.018;5.810;2023-07-28T14:03:21;23.20;76.40
43884;DHT22;29544;52.018;5.810;2023-07-28T14:05:47;23.30;76.80
43884;DHT22;29544;52.018;5.810;2023-07-28T14:08:12;23.30;76.60
43884;DHT22;29544;52.018;5.810;2023-07-28T14:10:38;23.40;76.80
43884;DHT22;29544;52.018;5.810;2023-07-28T14:13:03;23.40;76.90
43884;DHT22;29544;52.018;5.810;2023-07-28T14:15:29;23.40;76.00
43884;DHT22;29544;52.018;5.810;2023-07-28T14:17:54;23.40;74.30
43884;DHT22;29544;52.018;5.810;2023-07-28T14:20:20;23.50;74.70
43884;DHT22;29544;52.018;5.810;2023-07-28T14:22:45;23.50;75.40
43884;DHT22;29544;52.018;5.810;2023-07-28T14:25:10;23.50;75.20
43884;DHT22;29544;52.018;5.810;2023-07-28T14:27:36;23.50;75.30
43884;DHT22;29544;52.018;5.810;2023-07-28T14:30:01;23.60;74.50
43884;DHT22;29544;52.018;5.810;2023-07-28T14:32:27;23.60;74.70
43884;DHT22;29544;52.018;5.810;2023-07-28T14:34:53;23.60;75.10
43884;DHT22;29544;52.018;5.810;2023-07-28T14:37:18;23.60;74.70
43884;DHT22;29544;52.018;5.810;2023-07-28T14:39:44;23.70;74.00
43884;DHT22;29544;52.018;5.810;2023-07-28T14:42:09;23.70;73.90
43884;DHT22;29544;52.018;5.810;2023-07-28T14:44:35;23.80;74.00
43884;DHT22;29544;52.018;5.810;2023-07-28T14:47:01;23.70;74.00
43884;DHT22;29544;52.018;5.810;2023-07-28T14:49:26;23.70;73.00
43884;DHT22;29544;52.018;5.810;2023-07-28T14:51:56;23.70;73.40
43884;DHT22;29544;52.018;5.810;2023-07-28T14:54:21;23.70;73.90
43884;DHT22;29544;52.018;5.810;2023-07-28T14:56:47;23.70;74.00
43884;DHT22;29544;52.018;5.810;2023-07-28T14:59:12;23.70;73.10
43884;DHT22;29544;52.018;5.810;2023-07-28T15:01:38;23.70;73.60
43884;DHT22;29544;52.018;5.810;2023-07-28T15:04:03;23.70;73.30
43884;DHT22;29544;52.018;5.810;2023-07-28T15:06:29;23.70;73.60
43884;DHT22;29544;52.018;5.810;2023-07-28T15:08:55;23.70;73.00
43884;DHT22;29544;52.018;5.810;2023-07-28T15:11:20;23.70;73.20
43884;DHT22;29544;52.018;5.810;2023-07-28T15:13:46;23.70;73.00
43884;DHT22;29544;52.018;5.810;2023-07-28T15:16:11;23.70;73.30
43884;DHT22;29544;52.018;5.810;2023-07-28T15:18:38;23.80;74.30
43884;DHT22;29544;52.018;5.810;2023-07-28T15:21:04;23.80;73.20
43884;DHT22;29544;52.018;5.810;2023-07-28T15:23:29;23.70;73.30
43884;DHT22;29544;52.018;5.810;2023-07-28T15:25:55;23.70;73.80
43884;DHT22;29544;52.018;5.810;2023-07-28T15:28:22;23.70;73.30